sensor_id;sensor_type;location;lat;lon;timestamp;P1;durP1;ratioP1;P2;durP2;ratioP2
3369;SDS011;42042;51.948;7.628;2023-04-06T00:01:01;12.80;;;9.15;;
3369;SDS011;42042;51.948;7.628;2023-04-06T00:03:28;12.35;;;9.43;;
3369;SDS011;42042;51.948;7.628;2023-04-06T00:05:56;9.73;;;8.73;;
3369;SDS011;42042;51.948;7.628;2023-04-06T00:08:23;11.95;;;10.27;;
3369;SDS011;42042;51.948;7.628;2023-04-06T00:10:50;11.98;;;8.52;;
3369;SDS011;42042;51.948;7.628;2023-04-06T00:13:17;12.80;;;9.70;;
3369;SDS011;42042;51.948;7.628;2023-04-06T00:15:45;13.10;;;8.45;;
3369;SDS011;42042;51.948;7.628;2023-04-06T00:18:13;14.70;;;9.32;;
3369;SDS011;42042;51.948;7.628;2023-04-06T00:20:41;14.05;;;9.45;;
3369;SDS011;42042;51.948;7.628;2023-04-06T00:23:08;10.55;;;9.20;;
3369;SDS011;42042;51.948;7.628;2023-04-06T00:25:35;12.02;;;9.80;;
3369;SDS011;42042;51.948;7.628;2023-04-06T00:28:03;10.88;;;9.32;;
3369;SDS011;42042;51.948;7.628;2023-04-06T00:30:30;11.13;;;8.20;;
3369;SDS011;42042;51.948;7.628;2023-04-06T00:32:57;12.70;;;10.07;;
3369;SDS011;42042;51.948;7.628;2023-04-06T00:35:27;9.77;;;8.77;;
3369;SDS011;42042;51.948;7.628;2023-04-06T00:37:54;11.35;;;9.15;;
3369;SDS011;42042;51.948;7.628;2023-04-06T00:40:21;12.13;;;8.80;;
3369;SDS011;42042;51.948;7.628;2023-04-06T00:42:49;11.48;;;9.02;;
3369;SDS011;42042;51.948;7.628;2023-04-06T00:45:16;10.93;;;9.55;;
3369;SDS011;42042;51.948;7.628;2023-04-06T00:47:43;13.10;;;9.68;;
3369;SDS011;42042;51.948;7.628;2023-04-06T00:50:11;12.05;;;9.90;;
3369;SDS011;42042;51.948;7.628;2023-04-06T00:52:39;11.73;;;9.80;;
3369;SDS011;42042;51.948;7.628;2023-04-06T00:55:07;10.45;;;9.13;;
3369;SDS011;42042;51.948;7.628;2023-04-06T00:57:34;10.45;;;9.30;;
3369;SDS011;42042;51.948;7.628;2023-04-06T01:00:02;13.30;;;9.55;;
3369;SDS011;42042;51.948;7.628;2023-04-06T01:02:30;11.15;;;9.20;;
3369;SDS011;42042;51.948;7.628;2023-04-06T01:04:57;13.63;;;9.30;;
3369;SDS011;42042;51.948;7.628;2023-04-06T01:07:24;16.17;;;10.35;;
3369;SDS011;42042;51.948;7.628;2023-04-06T01:09:54;10.20;;;9.02;;
3369;SDS011;42042;51.948;7.628;2023-04-06T01:12:21;13.68;;;8.65;;
3369;SDS011;42042;51.948;7.628;2023-04-06T01:14:48;10.63;;;9.52;;
3369;SDS011;42042;51.948;7.628;2023-04-06T01:17:15;12.15;;;9.70;;
3369;SDS011;42042;51.948;7.628;2023-04-06T01:19:43;10.15;;;9.25;;
3369;SDS011;42042;51.948;7.628;2023-04-06T01:22:14;11.65;;;9.23;;
3369;SDS011;42042;51.948;7.628;2023-04-06T01:24:41;10.68;;;8.85;;
3369;SDS011;42042;51.948;7.628;2023-04-06T01:27:09;10.85;;;9.20;;
3369;SDS011;42042;51.948;7.628;2023-04-06T01:29:36;10.13;;;9.02;;
3369;SDS011;42042;51.948;7.628;2023-04-06T01:32:06;10.20;;;9.10;;
3369;SDS011;42042;51.948;7.628;2023-04-06T01:34:33;11.80;;;8.70;;
3369;SDS011;42042;51.948;7.628;2023-04-06T01:37:01;11.38;;;9.55;;
3369;SDS011;42042;51.948;7.628;2023-04-06T01:39:30;12.55;;;10.07;;
3369;SDS011;42042;51.948;7.628;2023-04-06T01:41:57;11.25;;;9.98;;
3369;SDS011;42042;51.948;7.628;2023-04-06T01:44:24;12.52;;;10.00;;
3369;SDS011;42042;51.948;7.628;2023-04-06T01:46:52;13.05;;;10.65;;
3369;SDS011;42042;51.948;7.628;2023-04-06T01:49:19;11.00;;;9.88;;
3369;SDS011;42042;51.948;7.628;2023-04-06T01:51:46;12.70;;;9.40;;
3369;SDS011;42042;51.948;7.628;2023-04-06T01:54:13;10.98;;;9.88;;
3369;SDS011;42042;51.948;7.628;2023-04-06T01:56:42;12.30;;;9.88;;
3369;SDS011;42042;51.948;7.628;2023-04-06T01:59:09;11.70;;;10.50;;
3369;SDS011;42042;51.948;7.628;2023-04-06T02:01:36;11.40;;;10.40;;
3369;SDS011;42042;51.948;7.628;2023-04-06T02:04:04;14.13;;;9.90;;
3369;SDS011;42042;51.948;7.628;2023-04-06T02:06:31;16.88;;;9.65;;
3369;SDS011;42042;51.948;7.628;2023-04-06T02:08:58;12.55;;;10.65;;
3369;SDS011;42042;51.948;7.628;2023-04-06T02:11:25;14.15;;;11.20;;
3369;SDS011;42042;51.948;7.628;2023-04-06T02:13:55;12.40;;;8.73;;
3369;SDS011;42042;51.948;7.628;2023-04-06T02:16:22;11.15;;;10.10;;
3369;SDS011;42042;51.948;7.628;2023-04-06T02:18:49;11.25;;;9.60;;
3369;SDS011;42042;51.948;7.628;2023-04-06T02:21:17;12.73;;;9.55;;
3369;SDS011;42042;51.948;7.628;2023-04-06T02:23:45;13.60;;;9.38;;
3369;SDS011;42042;51.948;7.628;2023-04-06T02:26:12;13.15;;;10.65;;
3369;SDS011;42042;51.948;7.628;2023-04-06T02:28:39;14.27;;;9.98;;
3369;SDS011;42042;51.948;7.628;2023-04-06T02:31:08;14.02;;;10.15;;
3369;SDS011;42042;51.948;7.628;2023-04-06T02:33:36;12.50;;;9.77;;
3369;SDS011;42042;51.948;7.628;2023-04-06T02:36:03;12.20;;;10.90;;
3369;SDS011;42042;51.948;7.628;2023-04-06T02:38:30;11.10;;;9.85;;
3369;SDS011;42042;51.948;7.628;2023-04-06T02:40:58;18.73;;;11.93;;
3369;SDS011;42042;51.948;7.628;2023-04-06T02:43:25;13.93;;;10.48;;
3369;SDS011;42042;51.948;7.628;2023-04-06T02:45:52;16.13;;;11.90;;
3369;SDS011;42042;51.948;7.628;2023-04-06T02:48:21;14.07;;;11.93;;
3369;SDS011;42042;51.948;7.628;2023-04-06T02:50:48;13.75;;;10.10;;
3369;SDS011;42042;51.948;7.628;2023-04-06T02:53:15;14.93;;;10.50;;
3369;SDS011;42042;51.948;7.628;2023-04-06T02:55:43;12.48;;;10.13;;
3369;SDS011;42042;51.948;7.628;2023-04-06T02:58:10;13.43;;;11.30;;
3369;SDS011;42042;51.948;7.628;2023-04-06T03:00:37;11.52;;;10.43;;
3369;SDS011;42042;51.948;7.628;2023-04-06T03:03:04;13.88;;;10.23;;
3369;SDS011;42042;51.948;7.628;2023-04-06T03:05:33;17.83;;;10.60;;
3369;SDS011;42042;51.948;7.628;2023-04-06T03:08:01;14.52;;;11.32;;
3369;SDS011;42042;51.948;7.628;2023-04-06T03:10:28;11.85;;;10.75;;
3369;SDS011;42042;51.948;7.628;2023-04-06T03:12:55;13.18;;;10.90;;
3369;SDS011;42042;51.948;7.628;2023-04-06T03:15:22;15.60;;;13.10;;
3369;SDS011;42042;51.948;7.628;2023-04-06T03:17:50;12.75;;;11.30;;
3369;SDS011;42042;51.948;7.628;2023-04-06T03:20:17;12.20;;;10.90;;
3369;SDS011;42042;51.948;7.628;2023-04-06T03:22:46;13.88;;;11.30;;
3369;SDS011;42042;51.948;7.628;2023-04-06T03:25:13;14.60;;;11.50;;
3369;SDS011;42042;51.948;7.628;2023-04-06T03:27:40;12.20;;;10.55;;
3369;SDS011;42042;51.948;7.628;2023-04-06T03:30:08;15.60;;;11.77;;
3369;SDS011;42042;51.948;7.628;2023-04-06T03:32:35;13.13;;;11.48;;
3369;SDS011;42042;51.948;7.628;2023-04-06T03:35:03;12.95;;;11.32;;
3369;SDS011;42042;51.948;7.628;2023-04-06T03:37:30;15.13;;;10.60;;
3369;SDS011;42042;51.948;7.628;2023-04-06T03:39:58;11.73;;;10.63;;
3369;SDS011;42042;51.948;7.628;2023-04-06T03:42:26;11.50;;;9.65;;
3369;SDS011;42042;51.948;7.628;2023-04-06T03:44:53;14.55;;;12.23;;
3369;SDS011;42042;51.948;7.628;2023-04-06T03:47:20;15.77;;;11.10;;
3369;SDS011;42042;51.948;7.628;2023-04-06T03:49:47;15.60;;;11.43;;
3369;SDS011;42042;51.948;7.628;2023-04-06T03:52:15;16.98;;;12.60;;
3369;SDS011;42042;51.948;7.628;2023-04-06T03:54:42;14.13;;;10.52;;
3369;SDS011;42042;51.948;7.628;2023-04-06T03:57:11;16.00;;;11.50;;
3369;SDS011;42042;51.948;7.628;2023-04-06T03:59:38;19.73;;;11.30;;
3369;SDS011;42042;51.948;7.628;2023-04-06T04:02:05;17.67;;;12.30;;
3369;SDS011;42042;51.948;7.628;2023-04-06T04:04:32;14.48;;;11.10;;
3369;SDS011;42042;51.948;7.628;2023-04-06T04:07:00;11.98;;;10.65;;
3369;SDS011;42042;51.948;7.628;2023-04-06T04:09:27;12.60;;;10.57;;
3369;SDS011;42042;51.948;7.628;2023-04-06T04:11:55;15.07;;;11.18;;
3369;SDS011;42042;51.948;7.628;2023-04-06T04:14:23;13.70;;;11.20;;
3369;SDS011;42042;51.948;7.628;2023-04-06T04:16:50;12.90;;;11.55;;
3369;SDS011;42042;51.948;7.628;2023-04-06T04:19:18;19.92;;;11.73;;
3369;SDS011;42042;51.948;7.628;2023-04-06T04:21:45;13.93;;;12.50;;
3369;SDS011;42042;51.948;7.628;2023-04-06T04:24:13;15.85;;;11.93;;
3369;SDS011;42042;51.948;7.628;2023-04-06T04:26:40;16.67;;;13.10;;
3369;SDS011;42042;51.948;7.628;2023-04-06T04:29:07;13.45;;;11.27;;
3369;SDS011;42042;51.948;7.628;2023-04-06T04:31:36;15.45;;;11.85;;
3369;SDS011;42042;51.948;7.628;2023-04-06T04:34:03;15.88;;;11.48;;
3369;SDS011;42042;51.948;7.628;2023-04-06T04:36:31;22.75;;;11.90;;
3369;SDS011;42042;51.948;7.628;2023-04-06T04:38:59;13.20;;;11.50;;
3369;SDS011;42042;51.948;7.628;2023-04-06T04:41:27;13.07;;;11.45;;
3369;SDS011;42042;51.948;7.628;2023-04-06T04:43:54;13.82;;;10.13;;
3369;SDS011;42042;51.948;7.628;2023-04-06T04:46:21;16.88;;;11.93;;
3369;SDS011;42042;51.948;7.628;2023-04-06T04:48:50;16.27;;;11.77;;
3369;SDS011;42042;51.948;7.628;2023-04-06T04:51:17;17.98;;;12.85;;
3369;SDS011;42042;51.948;7.628;2023-04-06T04:53:45;15.60;;;12.30;;
3369;SDS011;42042;51.948;7.628;2023-04-06T04:56:13;13.85;;;10.98;;
3369;SDS011;42042;51.948;7.628;2023-04-06T04:58:40;16.88;;;12.75;;
3369;SDS011;42042;51.948;7.628;2023-04-06T05:01:07;15.50;;;12.98;;
3369;SDS011;42042;51.948;7.628;2023-04-06T05:03:35;18.38;;;12.13;;
3369;SDS011;42042;51.948;7.628;2023-04-06T05:06:05;22.85;;;13.65;;
3369;SDS011;42042;51.948;7.628;2023-04-06T05:08:33;13.95;;;12.48;;
3369;SDS011;42042;51.948;7.628;2023-04-06T05:11:00;15.95;;;12.75;;
3369;SDS011;42042;51.948;7.628;2023-04-06T05:13:29;26.55;;;13.60;;
3369;SDS011;42042;51.948;7.628;2023-04-06T05:15:56;15.10;;;13.05;;
3369;SDS011;42042;51.948;7.628;2023-04-06T05:18:23;15.02;;;12.70;;
3369;SDS011;42042;51.948;7.628;2023-04-06T05:20:51;15.73;;;13.48;;
3369;SDS011;42042;51.948;7.628;2023-04-06T05:23:19;17.67;;;12.43;;
3369;SDS011;42042;51.948;7.628;2023-04-06T05:25:47;18.27;;;13.43;;
3369;SDS011;42042;51.948;7.628;2023-04-06T05:28:14;15.93;;;13.00;;
3369;SDS011;42042;51.948;7.628;2023-04-06T05:30:41;21.95;;;12.55;;
3369;SDS011;42042;51.948;7.628;2023-04-06T05:33:09;17.33;;;13.23;;
3369;SDS011;42042;51.948;7.628;2023-04-06T05:35:36;16.13;;;12.98;;
3369;SDS011;42042;51.948;7.628;2023-04-06T05:38:05;14.93;;;13.15;;
3369;SDS011;42042;51.948;7.628;2023-04-06T05:40:34;17.60;;;12.90;;
3369;SDS011;42042;51.948;7.628;2023-04-06T05:43:01;31.42;;;24.08;;
3369;SDS011;42042;51.948;7.628;2023-04-06T05:45:29;23.95;;;18.58;;
3369;SDS011;42042;51.948;7.628;2023-04-06T05:47:56;19.58;;;14.63;;
3369;SDS011;42042;51.948;7.628;2023-04-06T05:50:24;21.25;;;15.35;;
3369;SDS011;42042;51.948;7.628;2023-04-06T05:52:51;19.98;;;14.30;;
3369;SDS011;42042;51.948;7.628;2023-04-06T05:55:18;20.52;;;13.35;;
3369;SDS011;42042;51.948;7.628;2023-04-06T05:57:47;22.77;;;13.82;;
3369;SDS011;42042;51.948;7.628;2023-04-06T06:00:14;15.95;;;12.32;;
3369;SDS011;42042;51.948;7.628;2023-04-06T06:02:42;15.05;;;13.45;;
3369;SDS011;42042;51.948;7.628;2023-04-06T06:05:09;14.82;;;12.45;;
3369;SDS011;42042;51.948;7.628;2023-04-06T06:07:37;16.55;;;12.63;;
3369;SDS011;42042;51.948;7.628;2023-04-06T06:10:04;15.90;;;12.70;;
3369;SDS011;42042;51.948;7.628;2023-04-06T06:12:31;21.58;;;13.40;;
3369;SDS011;42042;51.948;7.628;2023-04-06T06:15:00;21.35;;;14.00;;
3369;SDS011;42042;51.948;7.628;2023-04-06T06:17:27;22.80;;;14.88;;
3369;SDS011;42042;51.948;7.628;2023-04-06T06:19:54;18.48;;;12.82;;
3369;SDS011;42042;51.948;7.628;2023-04-06T06:24:54;16.27;;;12.10;;
3369;SDS011;42042;51.948;7.628;2023-04-06T06:27:21;15.18;;;12.23;;
3369;SDS011;42042;51.948;7.628;2023-04-06T06:29:48;17.00;;;12.93;;
3369;SDS011;42042;51.948;7.628;2023-04-06T06:32:17;19.83;;;13.98;;
3369;SDS011;42042;51.948;7.628;2023-04-06T06:34:45;15.82;;;11.35;;
3369;SDS011;42042;51.948;7.628;2023-04-06T06:37:12;16.08;;;12.27;;
3369;SDS011;42042;51.948;7.628;2023-04-06T06:39:40;16.17;;;12.13;;
3369;SDS011;42042;51.948;7.628;2023-04-06T06:42:07;14.90;;;12.05;;
3369;SDS011;42042;51.948;7.628;2023-04-06T06:44:34;19.55;;;12.15;;
3369;SDS011;42042;51.948;7.628;2023-04-06T06:47:01;24.25;;;13.65;;
3369;SDS011;42042;51.948;7.628;2023-04-06T06:49:30;22.60;;;15.48;;
3369;SDS011;42042;51.948;7.628;2023-04-06T06:51:57;18.13;;;13.65;;
3369;SDS011;42042;51.948;7.628;2023-04-06T06:54:25;19.80;;;12.82;;
3369;SDS011;42042;51.948;7.628;2023-04-06T06:56:52;19.92;;;13.40;;
3369;SDS011;42042;51.948;7.628;2023-04-06T06:59:19;15.35;;;13.02;;
3369;SDS011;42042;51.948;7.628;2023-04-06T07:01:47;14.10;;;11.98;;
3369;SDS011;42042;51.948;7.628;2023-04-06T07:04:14;17.80;;;10.73;;
3369;SDS011;42042;51.948;7.628;2023-04-06T07:06:44;18.95;;;12.48;;
3369;SDS011;42042;51.948;7.628;2023-04-06T07:09:11;18.48;;;12.35;;
3369;SDS011;42042;51.948;7.628;2023-04-06T07:11:38;16.15;;;12.20;;
3369;SDS011;42042;51.948;7.628;2023-04-06T07:14:05;13.52;;;9.80;;
3369;SDS011;42042;51.948;7.628;2023-04-06T07:16:33;18.35;;;11.18;;
3369;SDS011;42042;51.948;7.628;2023-04-06T07:19:00;12.82;;;10.30;;
3369;SDS011;42042;51.948;7.628;2023-04-06T07:21:27;18.20;;;10.63;;
3369;SDS011;42042;51.948;7.628;2023-04-06T07:23:56;16.33;;;10.48;;
3369;SDS011;42042;51.948;7.628;2023-04-06T07:26:23;12.65;;;10.45;;
3369;SDS011;42042;51.948;7.628;2023-04-06T07:28:50;12.07;;;9.80;;
3369;SDS011;42042;51.948;7.628;2023-04-06T07:31:18;12.05;;;10.07;;
3369;SDS011;42042;51.948;7.628;2023-04-06T07:33:45;12.88;;;9.75;;
3369;SDS011;42042;51.948;7.628;2023-04-06T07:36:12;12.65;;;10.50;;
3369;SDS011;42042;51.948;7.628;2023-04-06T07:38:40;14.40;;;10.57;;
3369;SDS011;42042;51.948;7.628;2023-04-06T07:41:08;18.20;;;9.98;;
3369;SDS011;42042;51.948;7.628;2023-04-06T07:43:36;15.38;;;10.80;;
3369;SDS011;42042;51.948;7.628;2023-04-06T07:46:04;17.45;;;9.43;;
3369;SDS011;42042;51.948;7.628;2023-04-06T07:48:31;14.55;;;10.00;;
3369;SDS011;42042;51.948;7.628;2023-04-06T07:51:01;13.70;;;9.52;;
3369;SDS011;42042;51.948;7.628;2023-04-06T07:53:29;11.90;;;9.25;;
3369;SDS011;42042;51.948;7.628;2023-04-06T07:55:57;12.13;;;8.73;;
3369;SDS011;42042;51.948;7.628;2023-04-06T07:58:26;12.73;;;9.55;;
3369;SDS011;42042;51.948;7.628;2023-04-06T08:00:53;12.65;;;8.98;;
3369;SDS011;42042;51.948;7.628;2023-04-06T08:03:22;13.90;;;9.20;;
3369;SDS011;42042;51.948;7.628;2023-04-06T08:05:51;10.48;;;7.97;;
3369;SDS011;42042;51.948;7.628;2023-04-06T08:08:18;15.80;;;9.80;;
3369;SDS011;42042;51.948;7.628;2023-04-06T08:10:46;12.48;;;8.80;;
3369;SDS011;42042;51.948;7.628;2023-04-06T08:13:13;12.20;;;9.50;;
3369;SDS011;42042;51.948;7.628;2023-04-06T08:15:42;12.27;;;8.13;;
3369;SDS011;42042;51.948;7.628;2023-04-06T08:18:09;10.60;;;8.57;;
3369;SDS011;42042;51.948;7.628;2023-04-06T08:20:37;10.52;;;8.82;;
3369;SDS011;42042;51.948;7.628;2023-04-06T08:23:04;11.75;;;9.60;;
3369;SDS011;42042;51.948;7.628;2023-04-06T08:25:34;11.00;;;9.23;;
3369;SDS011;42042;51.948;7.628;2023-04-06T08:28:02;12.07;;;10.38;;
3369;SDS011;42042;51.948;7.628;2023-04-06T08:30:29;13.18;;;9.52;;
3369;SDS011;42042;51.948;7.628;2023-04-06T08:33:04;13.20;;;8.95;;
3369;SDS011;42042;51.948;7.628;2023-04-06T08:35:31;22.27;;;14.98;;
3369;SDS011;42042;51.948;7.628;2023-04-06T08:37:58;13.23;;;10.88;;
3369;SDS011;42042;51.948;7.628;2023-04-06T08:40:25;14.50;;;10.80;;
3369;SDS011;42042;51.948;7.628;2023-04-06T08:42:54;11.93;;;10.30;;
3369;SDS011;42042;51.948;7.628;2023-04-06T08:45:22;12.45;;;10.65;;
3369;SDS011;42042;51.948;7.628;2023-04-06T08:47:49;12.25;;;9.65;;
3369;SDS011;42042;51.948;7.628;2023-04-06T08:50:18;13.68;;;10.00;;
3369;SDS011;42042;51.948;7.628;2023-04-06T08:52:46;12.40;;;9.83;;
3369;SDS011;42042;51.948;7.628;2023-04-06T08:55:14;11.07;;;9.98;;
3369;SDS011;42042;51.948;7.628;2023-04-06T08:57:41;15.55;;;10.95;;
3369;SDS011;42042;51.948;7.628;2023-04-06T09:00:09;15.48;;;10.23;;
3369;SDS011;42042;51.948;7.628;2023-04-06T09:02:38;19.10;;;11.15;;
3369;SDS011;42042;51.948;7.628;2023-04-06T09:05:05;11.60;;;10.40;;
3369;SDS011;42042;51.948;7.628;2023-04-06T09:07:36;19.05;;;10.63;;
3369;SDS011;42042;51.948;7.628;2023-04-06T09:10:04;14.02;;;10.70;;
3369;SDS011;42042;51.948;7.628;2023-04-06T09:12:31;11.48;;;10.27;;
3369;SDS011;42042;51.948;7.628;2023-04-06T09:14:59;18.63;;;12.10;;
3369;SDS011;42042;51.948;7.628;2023-04-06T09:17:27;13.67;;;12.20;;
3369;SDS011;42042;51.948;7.628;2023-04-06T09:19:57;13.70;;;11.03;;
3369;SDS011;42042;51.948;7.628;2023-04-06T09:22:24;18.08;;;11.10;;
3369;SDS011;42042;51.948;7.628;2023-04-06T09:24:55;14.70;;;10.70;;
3369;SDS011;42042;51.948;7.628;2023-04-06T09:27:32;17.77;;;11.27;;
3369;SDS011;42042;51.948;7.628;2023-04-06T09:30:03;20.83;;;12.17;;
3369;SDS011;42042;51.948;7.628;2023-04-06T09:32:30;17.80;;;12.47;;
3369;SDS011;42042;51.948;7.628;2023-04-06T09:35:05;16.63;;;12.37;;
3369;SDS011;42042;51.948;7.628;2023-04-06T09:37:32;16.70;;;11.50;;
3369;SDS011;42042;51.948;7.628;2023-04-06T09:40:05;15.37;;;11.73;;
3369;SDS011;42042;51.948;7.628;2023-04-06T09:42:33;15.60;;;13.83;;
3369;SDS011;42042;51.948;7.628;2023-04-06T09:45:00;20.43;;;12.57;;
3369;SDS011;42042;51.948;7.628;2023-04-06T09:47:28;15.30;;;11.90;;
3369;SDS011;42042;51.948;7.628;2023-04-06T09:49:56;18.10;;;12.80;;
3369;SDS011;42042;51.948;7.628;2023-04-06T09:52:24;17.40;;;13.00;;
3369;SDS011;42042;51.948;7.628;2023-04-06T09:54:53;18.53;;;14.07;;
3369;SDS011;42042;51.948;7.628;2023-04-06T09:57:24;15.47;;;13.47;;
3369;SDS011;42042;51.948;7.628;2023-04-06T09:59:54;19.43;;;13.73;;
3369;SDS011;42042;51.948;7.628;2023-04-06T10:02:26;22.67;;;15.13;;
3369;SDS011;42042;51.948;7.628;2023-04-06T10:04:57;20.80;;;15.20;;
3369;SDS011;42042;51.948;7.628;2023-04-06T10:07:26;19.67;;;14.90;;
3369;SDS011;42042;51.948;7.628;2023-04-06T10:09:53;20.50;;;15.40;;
3369;SDS011;42042;51.948;7.628;2023-04-06T10:12:21;20.17;;;15.17;;
3369;SDS011;42042;51.948;7.628;2023-04-06T10:14:50;22.90;;;15.50;;
3369;SDS011;42042;51.948;7.628;2023-04-06T10:17:17;19.27;;;15.20;;
3369;SDS011;42042;51.948;7.628;2023-04-06T10:19:46;24.20;;;16.10;;
3369;SDS011;42042;51.948;7.628;2023-04-06T10:22:18;20.37;;;15.90;;
3369;SDS011;42042;51.948;7.628;2023-04-06T10:24:49;26.03;;;17.23;;
3369;SDS011;42042;51.948;7.628;2023-04-06T10:27:16;20.23;;;16.00;;
3369;SDS011;42042;51.948;7.628;2023-04-06T10:30:00;19.00;;;16.17;;
3369;SDS011;42042;51.948;7.628;2023-04-06T10:32:31;21.90;;;16.53;;
3369;SDS011;42042;51.948;7.628;2023-04-06T10:35:04;19.40;;;15.07;;
3369;SDS011;42042;51.948;7.628;2023-04-06T10:37:45;20.33;;;15.17;;
3369;SDS011;42042;51.948;7.628;2023-04-06T10:40:17;22.20;;;16.27;;
3369;SDS011;42042;51.948;7.628;2023-04-06T10:42:45;22.10;;;15.07;;
3369;SDS011;42042;51.948;7.628;2023-04-06T10:45:19;17.87;;;14.80;;
3369;SDS011;42042;51.948;7.628;2023-04-06T10:47:47;19.83;;;16.37;;
3369;SDS011;42042;51.948;7.628;2023-04-06T10:50:15;21.20;;;15.20;;
3369;SDS011;42042;51.948;7.628;2023-04-06T10:52:43;16.70;;;13.87;;
3369;SDS011;42042;51.948;7.628;2023-04-06T10:55:11;17.17;;;14.33;;
3369;SDS011;42042;51.948;7.628;2023-04-06T10:57:38;22.10;;;15.60;;
3369;SDS011;42042;51.948;7.628;2023-04-06T11:00:06;18.10;;;15.17;;
3369;SDS011;42042;51.948;7.628;2023-04-06T11:02:35;19.47;;;14.20;;
3369;SDS011;42042;51.948;7.628;2023-04-06T11:05:04;22.90;;;14.90;;
3369;SDS011;42042;51.948;7.628;2023-04-06T11:07:31;22.13;;;15.90;;
3369;SDS011;42042;51.948;7.628;2023-04-06T11:09:59;20.90;;;15.20;;
3369;SDS011;42042;51.948;7.628;2023-04-06T11:12:26;19.60;;;14.27;;
3369;SDS011;42042;51.948;7.628;2023-04-06T11:14:54;17.43;;;14.37;;
3369;SDS011;42042;51.948;7.628;2023-04-06T11:17:26;23.60;;;18.20;;
3369;SDS011;42042;51.948;7.628;2023-04-06T11:19:55;19.90;;;15.47;;
3369;SDS011;42042;51.948;7.628;2023-04-06T11:22:22;23.00;;;16.80;;
3369;SDS011;42042;51.948;7.628;2023-04-06T11:24:50;18.70;;;15.80;;
3369;SDS011;42042;51.948;7.628;2023-04-06T11:27:17;22.27;;;17.70;;
3369;SDS011;42042;51.948;7.628;2023-04-06T11:29:45;18.93;;;15.40;;
3369;SDS011;42042;51.948;7.628;2023-04-06T11:32:19;18.23;;;14.80;;
3369;SDS011;42042;51.948;7.628;2023-04-06T11:34:47;23.50;;;15.83;;
3369;SDS011;42042;51.948;7.628;2023-04-06T11:37:16;17.90;;;14.10;;
3369;SDS011;42042;51.948;7.628;2023-04-06T11:39:48;19.93;;;14.60;;
3369;SDS011;42042;51.948;7.628;2023-04-06T11:42:23;23.03;;;15.00;;
3369;SDS011;42042;51.948;7.628;2023-04-06T11:44:50;18.73;;;15.10;;
3369;SDS011;42042;51.948;7.628;2023-04-06T11:47:18;20.77;;;16.20;;
3369;SDS011;42042;51.948;7.628;2023-04-06T11:49:47;18.83;;;15.17;;
3369;SDS011;42042;51.948;7.628;2023-04-06T11:52:17;16.60;;;13.83;;
3369;SDS011;42042;51.948;7.628;2023-04-06T11:54:44;18.73;;;13.87;;
3369;SDS011;42042;51.948;7.628;2023-04-06T11:57:12;16.70;;;13.23;;
3369;SDS011;42042;51.948;7.628;2023-04-06T11:59:39;17.40;;;14.20;;
3369;SDS011;42042;51.948;7.628;2023-04-06T12:02:06;18.90;;;14.50;;
3369;SDS011;42042;51.948;7.628;2023-04-06T12:04:34;16.37;;;13.67;;
3369;SDS011;42042;51.948;7.628;2023-04-06T12:07:01;16.90;;;13.50;;
3369;SDS011;42042;51.948;7.628;2023-04-06T12:09:30;20.53;;;13.40;;
3369;SDS011;42042;51.948;7.628;2023-04-06T12:11:59;16.63;;;13.23;;
3369;SDS011;42042;51.948;7.628;2023-04-06T12:14:27;17.17;;;12.80;;
3369;SDS011;42042;51.948;7.628;2023-04-06T12:16:55;13.93;;;12.30;;
3369;SDS011;42042;51.948;7.628;2023-04-06T12:19:22;14.97;;;13.20;;
3369;SDS011;42042;51.948;7.628;2023-04-06T12:21:50;17.93;;;12.93;;
3369;SDS011;42042;51.948;7.628;2023-04-06T12:24:18;17.77;;;11.97;;
3369;SDS011;42042;51.948;7.628;2023-04-06T12:26:47;19.60;;;12.17;;
3369;SDS011;42042;51.948;7.628;2023-04-06T12:29:15;14.30;;;10.77;;
3369;SDS011;42042;51.948;7.628;2023-04-06T12:31:42;12.63;;;10.53;;
3369;SDS011;42042;51.948;7.628;2023-04-06T12:34:10;12.23;;;10.73;;
3369;SDS011;42042;51.948;7.628;2023-04-06T12:36:37;16.03;;;11.83;;
3369;SDS011;42042;51.948;7.628;2023-04-06T12:39:04;17.17;;;12.87;;
3369;SDS011;42042;51.948;7.628;2023-04-06T12:41:32;16.57;;;13.17;;
3369;SDS011;42042;51.948;7.628;2023-04-06T12:44:00;16.00;;;12.13;;
3369;SDS011;42042;51.948;7.628;2023-04-06T12:46:28;15.27;;;11.87;;
3369;SDS011;42042;51.948;7.628;2023-04-06T12:48:56;16.37;;;12.67;;
3369;SDS011;42042;51.948;7.628;2023-04-06T12:51:24;15.33;;;12.23;;
3369;SDS011;42042;51.948;7.628;2023-04-06T12:53:51;18.57;;;13.50;;
3369;SDS011;42042;51.948;7.628;2023-04-06T12:56:19;19.20;;;12.53;;
3369;SDS011;42042;51.948;7.628;2023-04-06T12:58:47;16.37;;;12.47;;
3369;SDS011;42042;51.948;7.628;2023-04-06T13:01:16;18.70;;;13.47;;
3369;SDS011;42042;51.948;7.628;2023-04-06T13:03:43;17.80;;;14.30;;
3369;SDS011;42042;51.948;7.628;2023-04-06T13:06:10;18.43;;;13.17;;
3369;SDS011;42042;51.948;7.628;2023-04-06T13:08:39;19.03;;;13.50;;
3369;SDS011;42042;51.948;7.628;2023-04-06T13:11:07;19.30;;;14.70;;
3369;SDS011;42042;51.948;7.628;2023-04-06T13:13:35;18.97;;;13.50;;
3369;SDS011;42042;51.948;7.628;2023-04-06T13:16:03;19.43;;;14.20;;
3369;SDS011;42042;51.948;7.628;2023-04-06T13:18:32;21.73;;;15.30;;
3369;SDS011;42042;51.948;7.628;2023-04-06T13:21:01;19.57;;;14.10;;
3369;SDS011;42042;51.948;7.628;2023-04-06T13:23:29;17.40;;;13.87;;
3369;SDS011;42042;51.948;7.628;2023-04-06T13:25:59;19.17;;;14.93;;
3369;SDS011;42042;51.948;7.628;2023-04-06T13:28:26;17.93;;;13.40;;
3369;SDS011;42042;51.948;7.628;2023-04-06T13:30:54;16.37;;;13.67;;
3369;SDS011;42042;51.948;7.628;2023-04-06T13:33:21;18.00;;;14.83;;
3369;SDS011;42042;51.948;7.628;2023-04-06T13:35:50;20.40;;;14.60;;
3369;SDS011;42042;51.948;7.628;2023-04-06T13:38:18;18.83;;;14.33;;
3369;SDS011;42042;51.948;7.628;2023-04-06T13:40:45;21.80;;;14.67;;
3369;SDS011;42042;51.948;7.628;2023-04-06T13:43:12;15.20;;;13.03;;
3369;SDS011;42042;51.948;7.628;2023-04-06T13:45:40;19.83;;;14.57;;
3369;SDS011;42042;51.948;7.628;2023-04-06T13:48:07;18.30;;;13.87;;
3369;SDS011;42042;51.948;7.628;2023-04-06T13:50:35;22.23;;;14.50;;
3369;SDS011;42042;51.948;7.628;2023-04-06T13:53:03;20.77;;;15.13;;
3369;SDS011;42042;51.948;7.628;2023-04-06T13:55:30;20.00;;;14.83;;
3369;SDS011;42042;51.948;7.628;2023-04-06T13:57:58;22.50;;;14.20;;
3369;SDS011;42042;51.948;7.628;2023-04-06T14:00:25;22.13;;;15.77;;
3369;SDS011;42042;51.948;7.628;2023-04-06T14:02:53;19.17;;;15.20;;
3369;SDS011;42042;51.948;7.628;2023-04-06T14:05:20;21.70;;;15.40;;
3369;SDS011;42042;51.948;7.628;2023-04-06T14:07:48;25.23;;;16.97;;
3369;SDS011;42042;51.948;7.628;2023-04-06T14:10:17;22.93;;;16.60;;
3369;SDS011;42042;51.948;7.628;2023-04-06T14:12:47;23.73;;;15.67;;
3369;SDS011;42042;51.948;7.628;2023-04-06T14:15:15;23.30;;;16.67;;
3369;SDS011;42042;51.948;7.628;2023-04-06T14:17:42;23.37;;;18.20;;
3369;SDS011;42042;51.948;7.628;2023-04-06T14:20:10;19.13;;;15.30;;
3369;SDS011;42042;51.948;7.628;2023-04-06T14:22:39;20.93;;;16.37;;
3369;SDS011;42042;51.948;7.628;2023-04-06T14:25:07;20.07;;;15.97;;
3369;SDS011;42042;51.948;7.628;2023-04-06T14:27:37;22.83;;;17.50;;
3369;SDS011;42042;51.948;7.628;2023-04-06T14:30:05;23.13;;;17.10;;
3369;SDS011;42042;51.948;7.628;2023-04-06T14:32:33;22.40;;;16.93;;
3369;SDS011;42042;51.948;7.628;2023-04-06T14:35:01;24.30;;;16.37;;
3369;SDS011;42042;51.948;7.628;2023-04-06T14:37:28;23.27;;;16.30;;
3369;SDS011;42042;51.948;7.628;2023-04-06T14:39:56;22.27;;;17.00;;
3369;SDS011;42042;51.948;7.628;2023-04-06T14:42:23;21.57;;;15.80;;
3369;SDS011;42042;51.948;7.628;2023-04-06T14:44:52;21.00;;;16.47;;